Time;durP1;ratioP1;P1;durP2;ratioP2;P2;SDS_P1;SDS_P2;PMS_P1;PMS_P2;Temp;Humidity;BMP_temperature;BMP_pressure;BME280_temperature;BME280_humidity;BME280_pressure;Samples;Min_cycle;Max_cycle;Signal;HPM_P1;HPM_P2
2022/10/30 00:00:48;;;;;;;7.28;3.03;;;18.00;99.90;;;18.28;100.00;101181.59;5164544;28;20050;-70
2022/10/30 00:03:20;;;;;;;10.50;3.22;;;18.00;99.90;;;18.27;100.00;101176.31;5164546;28;20050;-70
2022/10/30 00:05:52;;;;;;;8.70;3.40;;;18.00;99.90;;;18.27;100.00;101185.13;5164629;28;20049;-70
2022/10/30 00:08:25;;;;;;;7.38;2.78;;;18.00;99.90;;;18.25;100.00;101188.59;5164824;28;20051;-70
2022/10/30 00:11:06;;;;;;;6.10;3.17;;;18.00;99.90;;;18.23;100.00;101185.06;5164103;28;20523;-70
2022/10/30 00:13:38;;;;;;;7.72;3.30;;;18.00;99.90;;;18.22;100.00;101183.31;5164364;28;20054;-70
2022/10/30 00:16:11;;;;;;;7.35;3.13;;;18.00;99.90;;;18.24;100.00;101186.84;5163301;28;20478;-70
2022/10/30 00:18:43;;;;;;;5.22;2.72;;;18.00;99.90;;;18.24;100.00;101192.13;5164378;28;20381;-70
2022/10/30 00:21:16;;;;;;;6.22;2.88;;;17.90;99.90;;;18.25;100.00;101188.59;5163853;28;20053;-70
2022/10/30 00:23:51;;;;;;;6.60;3.03;;;18.00;99.90;;;18.22;100.00;101188.59;5164376;28;20465;-70
2022/10/30 00:26:25;;;;;;;5.70;2.90;;;17.90;99.90;;;18.20;100.00;101190.34;5164120;28;20046;-70
2022/10/30 00:28:57;;;;;;;7.50;3.10;;;17.90;99.90;;;18.18;100.00;101188.53;5164150;28;20054;-70
2022/10/30 00:31:30;;;;;;;6.50;2.80;;;17.90;99.90;;;18.17;100.00;101192.03;5163832;28;20050;-70
2022/10/30 00:34:02;;;;;;;7.65;3.22;;;17.90;99.90;;;18.15;100.00;101201.72;5162769;28;20047;-70
2022/10/30 00:36:34;;;;;;;7.00;2.85;;;17.90;99.90;;;18.15;100.00;101201.72;5163949;28;20045;-70
2022/10/30 00:39:06;;;;;;;6.78;2.97;;;17.90;99.90;;;18.17;100.00;101202.59;5162788;28;20057;-70
2022/10/30 00:41:41;;;;;;;6.78;3.25;;;17.90;99.90;;;18.17;100.00;101199.09;5161413;28;20133;-70
2022/10/30 00:44:37;;;;;;;4.85;2.70;;;17.90;99.90;;;18.16;100.00;101200.84;5162812;28;20050;-70
2022/10/30 00:47:15;;;;;;;4.68;3.15;;;17.90;99.90;;;18.13;100.00;101200.81;5162592;22;20441;-70
2022/10/30 00:49:58;;;;;;;5.85;3.22;;;17.80;99.90;;;18.11;100.00;101197.25;5161179;28;20042;-69
2022/10/30 00:52:34;;;;;;;6.45;3.03;;;17.80;99.90;;;18.09;100.00;101199.00;5163973;28;20046;-69
2022/10/30 00:55:14;;;;;;;8.73;3.08;;;17.80;99.90;;;18.07;100.00;101184.94;5163627;28;20490;-69
2022/10/30 00:57:49;;;;;;;7.05;2.95;;;17.80;99.90;;;18.05;100.00;101181.38;5162335;28;20506;-69
2022/10/30 01:00:24;;;;;;;6.63;3.30;;;17.80;99.90;;;18.04;100.00;101184.00;5162893;28;20085;-69
2022/10/30 01:02:57;;;;;;;6.78;2.90;;;17.70;99.90;;;18.02;100.00;101186.63;5162207;28;20053;-69
2022/10/30 01:05:31;;;;;;;5.43;2.78;;;17.80;99.90;;;18.02;100.00;101186.63;5163777;28;20046;-69
2022/10/30 01:08:03;;;;;;;5.18;2.58;;;17.70;99.90;;;18.01;100.00;101195.41;5162614;28;20495;-69
2022/10/30 01:10:35;;;;;;;7.35;2.92;;;17.70;99.90;;;17.99;100.00;101191.84;5162965;28;20097;-69
2022/10/30 01:13:09;;;;;;;7.78;2.85;;;17.70;99.90;;;17.98;100.00;101190.09;5162239;28;20043;-69
2022/10/30 01:15:52;;;;;;;4.35;3.00;;;17.70;99.90;;;17.95;100.00;101183.91;5162201;28;20053;-69
2022/10/30 01:18:35;;;;;;;5.95;2.60;;;17.70;99.90;;;17.93;100.00;101180.34;5162591;28;20105;-69
2022/10/30 01:21:23;;;;;;;4.78;2.70;;;17.70;99.90;;;17.92;100.00;101179.47;5161447;28;20055;-69
2022/10/30 01:24:15;;;;;;;5.18;2.72;;;17.60;99.90;;;17.89;100.00;101184.72;5162105;28;20060;-69
2022/10/30 01:26:54;;;;;;;4.57;2.78;;;17.60;99.90;;;17.86;100.00;101189.94;5163409;28;20554;-70
2022/10/30 01:29:45;;;;;;;8.25;2.72;;;17.60;99.90;;;17.83;100.00;101184.66;5178484;28;20046;-69
2022/10/30 01:32:41;;;;;;;5.20;2.70;;;17.60;99.90;;;17.78;100.00;101183.72;5162044;28;20050;-69
2022/10/30 01:35:20;;;;;;;5.72;2.70;;;17.50;99.90;;;17.73;100.00;101193.31;5163255;28;20414;-69
2022/10/30 01:38:00;;;;;;;4.88;2.28;;;17.50;99.90;;;17.70;100.00;101193.25;5162422;28;20046;-69
2022/10/30 01:40:33;;;;;;;3.80;2.20;;;17.40;99.90;;;17.66;100.00;101201.97;5161360;28;20191;-69
2022/10/30 01:43:05;;;;;;;3.42;2.10;;;17.40;99.90;;;17.56;100.00;101191.34;5163161;28;20585;-70
2022/10/30 01:46:01;;;;;;;3.92;2.30;;;17.30;99.90;;;17.48;100.00;101185.09;5162251;28;20050;-69
2022/10/30 01:49:07;;;;;;;3.10;1.90;;;17.20;99.90;;;17.41;100.00;101185.88;5162270;28;20507;-69
2022/10/30 01:51:53;;;;;;;4.88;2.03;;;17.10;99.90;;;17.33;100.00;101193.66;5162802;28;20042;-69
2022/10/30 01:54:37;;;;;;;2.67;1.88;;;17.10;99.90;;;17.27;100.00;101193.56;5166118;28;20046;-69
2022/10/30 01:57:20;;;;;;;4.30;2.40;;;17.00;99.90;;;17.19;100.00;101194.34;5166336;28;20473;-69
2022/10/30 02:00:02;;;;;;;3.83;2.10;;;16.90;99.90;;;17.09;100.00;101196.84;5165717;28;20050;-69
2022/10/30 02:02:47;;;;;;;4.18;1.83;;;16.80;99.90;;;17.01;100.00;101189.69;5167045;28;20061;-69
2022/10/30 02:05:27;;;;;;;4.20;2.00;;;16.70;99.90;;;16.94;100.00;101198.34;5166246;28;20049;-69
2022/10/30 02:08:01;;;;;;;4.60;2.15;;;16.70;99.90;;;16.87;100.00;101186.84;5165988;28;20511;-69
2022/10/30 02:10:34;;;;;;;3.88;2.00;;;16.60;99.90;;;16.81;100.00;101194.66;5165297;28;20077;-69
2022/10/30 02:13:07;;;;;;;6.32;2.67;;;16.50;99.90;;;16.76;100.00;101193.72;5165519;28;20567;-70
2022/10/30 02:15:39;;;;;;;5.93;2.20;;;16.50;99.90;;;16.69;100.00;101181.25;5165735;28;20096;-71
2022/10/30 02:18:12;;;;;;;4.85;2.88;;;16.40;99.90;;;16.67;100.00;101169.81;5165716;28;20056;-70
2022/10/30 02:20:47;;;;;;;6.63;3.13;;;16.40;99.90;;;16.65;100.00;101174.19;5165388;28;20046;-70
2022/10/30 02:23:21;;;;;;;4.28;2.60;;;16.40;99.90;;;16.60;100.00;101175.84;5165384;28;20050;-69
2022/10/30 02:25:55;;;;;;;6.85;2.63;;;16.30;99.90;;;16.54;100.00;101172.25;5182328;28;20092;-69
2022/10/30 02:28:27;;;;;;;4.60;2.40;;;16.30;99.90;;;16.49;100.00;101173.91;5165483;28;20043;-69
2022/10/30 02:31:00;;;;;;;5.15;2.42;;;16.20;99.90;;;16.46;100.00;101173.00;5181410;28;20137;-70
2022/10/30 02:33:32;;;;;;;5.00;2.70;;;16.20;99.90;;;16.42;100.00;101168.53;5164923;28;20522;-69
2022/10/30 02:36:07;;;;;;;6.97;2.60;;;16.20;99.90;;;16.36;100.00;101176.31;5165517;28;20613;-69
2022/10/30 02:38:39;;;;;;;4.82;2.70;;;16.10;99.90;;;16.29;100.00;101175.31;5165013;28;20418;-69
2022/10/30 02:41:11;;;;;;;5.45;2.40;;;16.00;99.90;;;16.24;100.00;101167.38;5165052;28;20133;-69
2022/10/30 02:43:44;;;;;;;4.78;2.55;;;16.00;99.90;;;16.18;100.00;101161.13;5164877;28;20047;-70
2022/10/30 02:46:16;;;;;;;6.28;2.53;;;15.90;99.90;;;16.13;100.00;101157.53;5181292;28;20068;-70
2022/10/30 02:48:48;;;;;;;5.38;2.60;;;15.90;99.90;;;16.07;100.00;101165.28;5166275;28;20042;-70
2022/10/30 02:51:22;;;;;;;6.35;2.50;;;15.80;99.90;;;16.01;100.00;101169.56;5164712;28;20054;-70
2022/10/30 02:53:54;;;;;;;7.32;2.50;;;15.80;99.90;;;15.95;100.00;101164.19;5165993;28;20042;-69
2022/10/30 02:56:26;;;;;;;4.63;2.47;;;15.70;99.90;;;15.89;100.00;101161.47;5164852;28;20057;-69
2022/10/30 02:58:59;;;;;;;5.75;2.70;;;15.60;99.90;;;15.82;100.00;101172.72;5164480;28;20147;-70
2022/10/30 03:01:31;;;;;;;4.82;2.40;;;15.60;99.90;;;15.76;100.00;101175.22;5164329;28;20050;-70
2022/10/30 03:04:05;;;;;;;4.85;2.40;;;15.50;99.90;;;15.71;100.00;101168.97;5163826;28;20046;-69
2022/10/30 03:06:38;;;;;;;4.05;2.70;;;15.40;99.90;;;15.66;100.00;101165.41;5164950;28;20050;-69
2022/10/30 03:09:10;;;;;;;5.20;2.72;;;15.40;99.90;;;15.60;100.00;101163.50;5164148;28;20418;-69
2022/10/30 03:11:44;;;;;;;4.55;2.65;;;15.40;99.90;;;15.57;100.00;101165.16;5165400;28;20492;-69
2022/10/30 03:14:17;;;;;;;4.88;2.38;;;15.30;99.90;;;15.54;100.00;101171.25;5165558;28;20054;-68
2022/10/30 03:16:51;;;;;;;6.25;2.60;;;15.30;99.90;;;15.53;100.00;101179.13;5180716;28;20046;-69
2022/10/30 03:19:23;;;;;;;5.18;2.40;;;15.30;99.90;;;15.49;100.00;101178.16;5164413;28;20061;-69
2022/10/30 03:21:58;;;;;;;4.22;2.70;;;15.30;99.90;;;15.43;100.00;101173.66;5163980;28;20404;-69
2022/10/30 03:24:30;;;;;;;3.78;2.40;;;15.20;99.90;;;15.39;100.00;101176.19;5164170;28;20050;-70
2022/10/30 03:27:02;;;;;;;5.90;2.83;;;15.10;99.90;;;15.33;100.00;101169.06;5165804;28;20120;-70
2022/10/30 03:29:34;;;;;;;6.90;2.83;;;15.10;99.90;;;15.31;100.00;101176.00;5164391;28;20049;-65
2022/10/30 03:32:10;;;;;;;7.18;3.22;;;15.10;99.90;;;15.29;100.00;101175.09;5163742;28;20050;-68
2022/10/30 03:34:49;;;;;;;5.35;2.78;;;15.00;99.90;;;15.23;100.00;101174.06;5165321;28;20034;-69
2022/10/30 03:37:25;;;;;;;5.03;3.10;;;15.00;99.90;;;15.17;100.00;101172.19;5163921;28;20074;-68
2022/10/30 03:39:57;;;;;;;4.57;2.60;;;14.90;99.90;;;15.12;100.00;101172.09;5163700;28;20527;-69
2022/10/30 03:42:29;;;;;;;5.70;2.42;;;14.90;99.90;;;15.10;100.00;101167.66;5163824;28;20043;-70
2022/10/30 03:45:01;;;;;;;5.80;2.53;;;14.90;99.90;;;15.08;100.00;101175.53;5163822;28;20064;-69
2022/10/30 03:47:37;;;;;;;5.70;2.67;;;14.80;99.90;;;15.07;100.00;101175.50;5164004;28;20049;-69
2022/10/30 03:50:10;;;;;;;4.30;2.40;;;14.80;99.90;;;15.04;100.00;101175.41;5163413;28;20056;-70
2022/10/30 03:52:43;;;;;;;4.20;2.67;;;14.80;99.90;;;14.99;100.00;101169.16;5163611;28;20145;-69
2022/10/30 03:55:15;;;;;;;3.60;2.20;;;14.70;99.90;;;14.93;100.00;101177.78;5163706;28;20213;-68
2022/10/30 03:57:48;;;;;;;5.93;2.50;;;14.70;99.90;;;14.87;100.00;101175.94;5163805;28;20042;-69
2022/10/30 04:00:22;;;;;;;4.80;2.45;;;14.60;99.90;;;14.83;100.00;101173.19;5163179;28;20157;-69
2022/10/30 04:03:01;;;;;;;5.60;2.65;;;14.60;99.90;;;14.79;100.00;101173.94;5163228;28;20053;-69
2022/10/30 04:05:35;;;;;;;4.75;2.95;;;14.60;99.90;;;14.74;100.00;101173.88;5163358;28;20082;-69
2022/10/30 04:08:13;;;;;;;4.72;2.53;;;14.50;99.90;;;14.69;100.00;101172.84;5163425;28;20050;-69
2022/10/30 04:10:47;;;;;;;6.32;3.10;;;14.50;99.90;;;14.62;100.00;101184.94;5163260;28;20438;-69
2022/10/30 04:13:20;;;;;;;5.30;3.15;;;14.40;99.90;;;14.57;100.00;101176.06;5163281;28;20463;-69
2022/10/30 04:15:56;;;;;;;5.93;2.60;;;14.40;99.90;;;14.54;100.00;101180.34;5162177;28;20082;-70
2022/10/30 04:18:28;;;;;;;6.65;2.92;;;14.30;99.90;;;14.51;100.00;101180.28;5164477;28;20096;-69
2022/10/30 04:21:01;;;;;;;4.75;2.65;;;14.30;99.90;;;14.48;100.00;101190.69;5162918;28;20495;-69
2022/10/30 04:23:35;;;;;;;6.13;2.92;;;14.30;99.90;;;14.47;100.00;101181.03;5163011;28;20047;-67
2022/10/30 04:26:07;;;;;;;5.55;2.85;;;14.20;99.90;;;14.43;100.00;101192.28;5163121;28;20050;-66
2022/10/30 04:28:43;;;;;;;5.95;2.78;;;14.20;99.90;;;14.39;100.00;101186.06;5162587;28;20054;-67
2022/10/30 04:31:16;;;;;;;5.80;2.60;;;14.20;99.90;;;14.36;100.00;101196.47;5164119;28;20521;-67
2022/10/30 04:33:48;;;;;;;5.20;2.70;;;14.10;99.90;;;14.31;100.00;101190.22;5163921;28;20113;-67
2022/10/30 04:36:23;;;;;;;5.45;2.55;;;14.10;99.90;;;14.27;100.00;101191.88;5164266;28;20052;-67
2022/10/30 04:38:57;;;;;;;6.00;2.80;;;14.10;99.90;;;14.24;100.00;101206.66;5179070;28;20073;-67
2022/10/30 04:41:33;;;;;;;6.30;2.85;;;14.00;99.90;;;14.16;100.00;101189.84;5162516;28;20046;-67
2022/10/30 04:44:11;;;;;;;6.28;2.97;;;14.00;99.90;;;14.11;100.00;101195.84;5162433;28;20053;-66
2022/10/30 04:46:43;;;;;;;6.68;3.03;;;13.90;99.90;;;14.11;100.00;101187.97;5162885;28;20134;-66
2022/10/30 04:49:16;;;;;;;6.22;3.08;;;13.90;99.90;;;14.13;100.00;101199.38;5162480;28;20511;-66
2022/10/30 04:51:49;;;;;;;7.28;3.05;;;13.90;99.90;;;14.08;100.00;101203.63;5162077;28;20050;-67
2022/10/30 04:54:24;;;;;;;5.78;3.03;;;13.90;99.90;;;14.03;100.00;101193.88;5178929;28;20042;-66
2022/10/30 04:56:56;;;;;;;6.22;3.00;;;13.80;99.90;;;14.00;100.00;101186.78;5178843;28;20081;-66
2022/10/30 04:59:30;;;;;;;5.40;3.33;;;13.80;99.90;;;14.03;100.00;101191.25;5162151;28;20047;-66
2022/10/30 05:02:03;;;;;;;5.03;2.90;;;13.80;99.90;;;14.06;100.00;101196.56;5163230;28;20038;-65
2022/10/30 05:04:35;;;;;;;6.90;3.88;;;13.90;99.90;;;14.12;100.00;101196.72;5162536;28;20042;-66
2022/10/30 05:07:07;;;;;;;6.65;2.80;;;13.90;99.90;;;14.13;100.00;101201.09;5162546;28;20113;-66
2022/10/30 05:09:41;;;;;;;7.88;2.88;;;13.90;99.90;;;14.10;100.00;101195.81;5163583;28;20045;-66
2022/10/30 05:12:13;;;;;;;4.20;2.50;;;13.90;99.90;;;14.04;100.00;101190.38;5162405;28;20054;-66
2022/10/30 05:14:55;;;;;;;7.93;3.50;;;13.80;99.90;;;14.00;100.00;101181.53;5163283;28;20042;-66
2022/10/30 05:17:28;;;;;;;7.07;3.65;;;13.80;99.90;;;14.02;100.00;101189.47;5162444;28;20436;-66
2022/10/30 05:20:01;;;;;;;5.47;2.95;;;13.80;99.90;;;14.06;100.00;101186.06;5162136;28;20563;-66
2022/10/30 05:22:33;;;;;;;8.30;2.95;;;13.80;99.90;;;14.05;100.00;101181.69;5161987;28;20428;-66
2022/10/30 05:25:08;;;;;;;7.10;2.92;;;13.90;99.90;;;14.04;100.00;101182.53;5162086;28;20046;-66
2022/10/30 05:27:40;;;;;;;6.57;2.75;;;13.80;99.90;;;14.06;100.00;101183.44;5164566;28;20046;-66
2022/10/30 05:30:13;;;;;;;5.50;2.67;;;13.80;99.90;;;14.03;100.00;101171.16;5165941;28;20507;-66
2022/10/30 05:32:46;;;;;;;4.95;2.70;;;13.80;99.90;;;14.01;100.00;101174.56;5166334;28;20046;-66
2022/10/30 05:35:18;;;;;;;6.57;3.20;;;13.80;99.90;;;13.98;100.00;101171.88;5166042;28;20145;-66
2022/10/30 05:37:50;;;;;;;6.65;3.13;;;13.80;99.90;;;13.96;100.00;101160.47;5166319;28;20137;-66
2022/10/30 05:40:24;;;;;;;6.18;2.95;;;13.80;99.90;;;13.95;100.00;101162.19;5165858;28;20073;-66
2022/10/30 05:42:58;;;;;;;5.88;2.92;;;13.80;99.90;;;13.93;100.00;101158.63;5165956;28;20113;-66
2022/10/30 05:45:31;;;;;;;8.02;3.28;;;13.80;99.90;;;13.91;100.00;101156.84;5165831;28;20392;-65
2022/10/30 05:48:07;;;;;;;4.28;2.70;;;13.70;99.90;;;13.87;100.00;101152.34;5165632;28;20050;-66
2022/10/30 05:50:46;;;;;;;4.55;2.65;;;13.70;99.90;;;13.81;100.00;101164.44;5145019;28;20047;-64
2022/10/30 05:53:39;;;;;;;6.75;2.83;;;13.70;99.90;;;13.77;100.00;101151.22;5166712;28;20066;-66
2022/10/30 05:56:13;;;;;;;5.20;2.50;;;13.60;99.90;;;13.73;100.00;101149.34;5165759;28;20050;-66
2022/10/30 05:58:45;;;;;;;6.18;2.72;;;13.60;99.90;;;13.72;100.00;101148.47;5165743;28;20061;-66
2022/10/30 06:01:17;;;;;;;6.18;2.70;;;13.50;99.90;;;13.71;100.00;101144.06;5149537;28;20042;-66
2022/10/30 06:03:54;;;;;;;5.20;2.67;;;13.50;99.90;;;13.69;100.00;101153.63;5165129;28;20050;-66
2022/10/30 06:06:27;;;;;;;4.97;2.55;;;13.50;99.90;;;13.66;100.00;101150.91;5165508;28;20523;-66
2022/10/30 06:08:59;;;;;;;7.05;2.80;;;13.50;99.90;;;13.63;100.00;101148.22;5165335;28;20586;-66
2022/10/30 06:11:55;;;;;;;3.70;2.50;;;13.50;99.90;;;13.59;100.00;101143.72;5165292;28;20051;-65
2022/10/30 06:14:38;;;;;;;5.47;2.65;;;13.40;99.90;;;13.54;100.00;101142.72;5165147;28;20054;-66
2022/10/30 06:17:11;;;;;;;4.95;2.88;;;13.40;99.90;;;13.52;100.00;101149.66;5165293;28;20050;-66
2022/10/30 06:20:04;;;;;;;6.32;3.05;;;13.30;99.90;;;13.51;100.00;101151.38;5145103;28;20054;-66
2022/10/30 06:22:59;;;;;;;6.20;2.92;;;13.30;99.90;;;13.49;100.00;101154.78;5164946;28;20058;-66
2022/10/30 06:25:37;;;;;;;7.93;3.30;;;13.30;99.90;;;13.47;100.00;101159.09;5148783;28;20042;-66
2022/10/30 06:28:40;;;;;;;7.72;2.92;;;13.30;99.90;;;13.45;100.00;101153.81;5159583;28;20411;-66
2022/10/30 06:31:12;;;;;;;6.53;3.70;;;13.30;99.90;;;13.45;100.00;101152.94;5164949;28;20054;-66
2022/10/30 06:33:45;;;;;;;5.13;2.75;;;13.30;99.90;;;13.47;100.00;101151.25;5165241;28;20043;-66
2022/10/30 06:36:18;;;;;;;4.50;2.67;;;13.30;99.90;;;13.48;100.00;101153.00;5148577;28;20050;-64
2022/10/30 06:38:50;;;;;;;6.05;2.85;;;13.30;99.90;;;13.48;100.00;101153.00;5164070;28;20137;-66
2022/10/30 06:41:25;;;;;;;6.72;3.08;;;13.30;99.90;;;13.47;100.00;101146.88;5165804;28;20092;-64
2022/10/30 06:44:08;;;;;;;6.50;2.92;;;13.30;99.90;;;13.50;100.00;101151.34;5164547;28;20149;-64
2022/10/30 06:46:42;;;;;;;6.93;2.85;;;13.40;99.90;;;13.54;100.00;101140.97;5180031;23;20038;-70
2022/10/30 06:49:14;;;;;;;6.20;2.75;;;13.30;99.90;;;13.60;100.00;101150.75;5143530;28;20050;-69
2022/10/30 06:51:47;;;;;;;4.63;2.72;;;13.40;99.90;;;13.63;100.00;101155.16;5162740;28;20094;-70
2022/10/30 06:54:19;;;;;;;5.75;2.83;;;13.40;99.90;;;13.63;100.00;101156.09;5148094;28;20038;-70
2022/10/30 06:57:26;;;;;;;5.05;2.75;;;13.40;99.90;;;13.64;100.00;101155.25;5165662;28;20054;-70
2022/10/30 07:00:21;;;;;;;5.63;2.65;;;13.50;99.90;;;13.67;100.00;101160.53;5147921;28;20046;-69
2022/10/30 07:03:12;;;;;;;5.97;3.00;;;13.50;99.90;;;13.73;100.00;101171.19;5165974;28;20050;-70
2022/10/30 07:05:45;;;;;;;5.10;2.80;;;13.60;99.90;;;13.76;100.00;101173.03;5147569;28;20540;-56
2022/10/30 07:08:17;;;;;;;6.35;3.00;;;13.60;99.90;;;13.79;100.00;101174.00;5165261;28;20065;-57
2022/10/30 07:10:49;;;;;;;7.00;2.90;;;13.60;99.90;;;13.83;100.00;101174.97;5147398;28;20518;-57
2022/10/30 07:13:30;;;;;;;7.43;3.13;;;13.70;99.90;;;13.88;100.00;101185.56;5165069;28;20594;-56
2022/10/30 07:16:18;;;;;;;6.32;2.75;;;13.70;99.90;;;13.94;100.00;101193.59;5147251;28;20101;-56
2022/10/30 07:18:55;;;;;;;4.93;2.97;;;13.80;99.90;;;13.99;100.00;101198.13;5147855;28;20050;-57
2022/10/30 07:21:27;;;;;;;11.73;3.70;;;13.80;99.90;;;14.06;100.00;101188.69;5147201;28;20522;-56
2022/10/30 07:23:59;;;;;;;6.75;3.47;;;13.90;99.90;;;14.16;100.00;101189.84;5147385;28;20070;-56
2022/10/30 07:26:49;;;;;;;4.88;2.92;;;14.00;99.90;;;14.26;100.00;101191.84;5142684;28;20046;-57
2022/10/30 07:29:36;;;;;;;7.25;3.17;;;14.10;99.90;;;14.32;100.00;101195.50;5146378;28;20061;-56
2022/10/30 07:32:31;;;;;;;8.20;3.30;;;14.10;99.90;;;14.40;100.00;101193.06;5164261;28;20136;-56
2022/10/30 07:35:20;;;;;;;8.15;3.05;;;14.20;99.90;;;14.47;100.00;101194.16;5162972;28;20185;-56
2022/10/30 07:38:02;;;;;;;7.43;3.38;;;14.30;99.90;;;14.56;100.00;101199.66;5157712;28;20055;-56
2022/10/30 07:40:52;;;;;;;6.32;3.40;;;14.30;99.90;;;14.66;100.00;101204.25;5154237;28;20129;-57
2022/10/30 07:43:43;;;;;;;7.40;3.55;;;14.40;99.90;;;14.75;100.00;101207.13;5146271;28;20134;-55
2022/10/30 07:46:40;;;;;;;8.75;4.00;;;14.50;99.90;;;14.84;100.00;101202.09;5147606;28;20129;-55
2022/10/30 07:49:34;;;;;;;9.57;4.35;;;14.60;99.90;;;14.95;100.00;101196.22;5159867;28;20059;-55
2022/10/30 07:52:10;;;;;;;7.13;3.55;;;14.70;99.90;;;15.04;100.00;101192.03;5140736;28;20054;-55
2022/10/30 07:54:43;;;;;;;8.32;3.72;;;14.80;99.90;;;15.14;100.00;101195.78;5146594;28;20046;-55
2022/10/30 07:57:39;;;;;;;7.45;3.53;;;14.90;99.90;;;15.26;100.00;101200.41;5163241;28;20116;-55
2022/10/30 08:00:34;;;;;;;10.00;4.28;;;15.00;99.90;;;15.38;100.00;101198.94;5163709;28;20050;-55
2022/10/30 08:03:26;;;;;;;8.00;3.83;;;15.10;99.90;;;15.55;100.00;101187.91;5163612;28;20105;-55
2022/10/30 08:06:08;;;;;;;9.30;4.53;;;15.20;99.90;;;15.80;100.00;101189.31;5138690;28;20053;-55
2022/10/30 08:08:42;;;;;;;9.63;4.47;;;15.40;99.90;;;16.19;100.00;101194.44;5134684;28;20050;-58
2022/10/30 08:11:23;;;;;;;8.10;3.90;;;15.70;99.90;;;16.90;100.00;101191.28;5126733;28;20566;-58
2022/10/30 08:13:55;;;;;;;8.40;3.92;;;16.20;99.90;;;17.72;100.00;101196.81;5144289;28;20420;-58
2022/10/30 08:16:28;;;;;;;8.13;4.00;;;16.80;99.90;;;18.42;100.00;101200.22;5142720;28;20047;-57
2022/10/30 08:19:00;;;;;;;7.40;3.72;;;17.50;99.90;;;19.13;100.00;101206.97;5144308;28;20061;-57
2022/10/30 08:21:34;;;;;;;9.07;3.25;;;18.20;99.90;;;19.76;100.00;101208.19;5144289;28;20340;-57
2022/10/30 08:24:13;;;;;;;11.57;4.53;;;18.80;99.90;;;20.26;100.00;101199.47;5126235;28;20120;-57
2022/10/30 08:26:51;;;;;;;6.90;3.30;;;19.40;99.90;;;20.58;100.00;101202.19;5126527;28;20050;-57
2022/10/30 08:29:24;;;;;;;8.43;4.00;;;19.90;99.90;;;20.75;100.00;101194.25;5126509;28;20078;-59
2022/10/30 08:31:57;;;;;;;8.93;3.78;;;20.10;99.90;;;20.78;99.35;101191.59;5126304;28;20054;-56
2022/10/30 08:34:31;;;;;;;9.00;3.50;;;20.30;99.90;;;20.71;99.16;101198.66;5144019;28;20404;-57
2022/10/30 08:37:09;;;;;;;9.85;4.30;;;20.30;99.90;;;20.66;98.51;101200.41;5143601;28;20057;-58
2022/10/30 08:39:41;;;;;;;12.07;3.83;;;20.30;99.90;;;20.66;98.83;101205.72;5143341;28;20050;-57
2022/10/30 08:42:36;;;;;;;8.63;3.58;;;20.30;99.90;;;20.60;98.73;101203.06;5142258;28;20078;-57
2022/10/30 08:45:14;;;;;;;8.20;3.75;;;20.30;99.90;;;20.54;98.39;101208.41;5141945;28;20474;-57
2022/10/30 08:48:03;;;;;;;9.82;3.25;;;20.20;99.90;;;20.47;98.77;101198.66;5139223;28;20148;-57
2022/10/30 08:50:39;;;;;;;8.23;3.00;;;20.10;99.90;;;20.43;98.84;101203.03;5146135;28;20054;-58
2022/10/30 08:53:15;;;;;;;8.52;3.10;;;20.10;99.90;;;20.38;98.80;101193.31;5161436;28;20078;-58
2022/10/30 08:55:51;;;;;;;8.40;3.92;;;20.00;99.90;;;20.33;99.19;101193.31;5153075;28;20074;-58
2022/10/30 08:58:31;;;;;;;6.53;3.22;;;20.00;99.90;;;20.26;99.45;101192.41;5146693;28;20082;-58
2022/10/30 09:01:03;;;;;;;8.55;3.50;;;19.90;99.90;;;20.25;99.86;101188.00;5162147;28;20070;-60
2022/10/30 09:04:01;;;;;;;8.00;3.63;;;19.90;99.90;;;20.29;100.00;101188.91;5164102;28;20081;-60
2022/10/30 09:06:55;;;;;;;6.97;3.50;;;19.90;99.90;;;20.30;99.48;101180.97;5164176;28;20050;-59
2022/10/30 09:09:35;;;;;;;6.57;3.08;;;19.90;99.90;;;20.25;98.56;101185.38;5164227;28;20369;-59
2022/10/30 09:12:08;;;;;;;6.78;2.72;;;19.90;99.90;;;20.22;98.88;101181.84;5162861;28;20080;-58
2022/10/30 09:14:46;;;;;;;7.63;3.00;;;19.80;99.90;;;20.26;99.66;101179.19;5154943;28;20096;-58
2022/10/30 09:17:18;;;;;;;8.80;2.92;;;19.80;99.90;;;20.29;99.03;101179.22;5145496;28;20501;-59
2022/10/30 09:19:52;;;;;;;6.15;2.97;;;19.90;99.90;;;20.39;99.37;101179.19;5145872;28;20050;-59
2022/10/30 09:22:38;;;;;;;6.03;3.00;;;19.90;99.90;;;20.47;98.82;101170.41;5141234;28;20057;-59
2022/10/30 09:25:13;;;;;;;6.22;3.20;;;20.00;99.90;;;20.50;97.43;101172.19;5156733;28;20566;-59
2022/10/30 09:28:11;;;;;;;7.80;3.38;;;20.00;99.90;;;20.67;97.70;101161.56;5145290;28;20062;-58
2022/10/30 09:31:06;;;;;;;9.90;3.63;;;20.10;99.90;;;20.69;95.97;101168.66;5144478;28;20062;-59
2022/10/30 09:33:41;;;;;;;7.43;3.03;;;20.20;99.90;;;20.76;96.52;101165.09;5145995;28;20084;-59
2022/10/30 09:36:34;;;;;;;7.10;3.28;;;20.30;99.90;;;20.77;94.31;101161.56;5163336;28;20054;-60
2022/10/30 09:39:06;;;;;;;10.13;3.15;;;20.30;99.90;;;20.68;94.49;101164.25;5146031;28;20153;-60
2022/10/30 09:42:04;;;;;;;7.18;2.90;;;20.20;99.70;;;20.77;95.09;101161.56;5145875;28;20042;-60
2022/10/30 09:44:56;;;;;;;9.80;3.38;;;20.30;99.90;;;20.90;94.52;101156.25;5145728;28;20046;-58
2022/10/30 09:47:42;;;;;;;7.80;3.20;;;20.40;99.80;;;21.10;93.57;101155.31;5145874;28;20415;-58
2022/10/30 09:50:25;;;;;;;10.57;3.92;;;20.50;99.70;;;21.08;92.36;101145.63;5145929;28;20057;-59
2022/10/30 09:53:07;;;;;;;7.43;2.92;;;20.60;99.10;;;21.14;92.69;101156.22;5145836;28;20082;-59
2022/10/30 09:55:46;;;;;;;7.28;3.40;;;20.60;99.20;;;21.24;93.02;101147.31;5145740;28;20042;-58
2022/10/30 09:58:29;;;;;;;6.38;3.15;;;20.70;99.20;;;21.38;92.64;101140.22;5145866;28;20133;-58
2022/10/30 10:01:13;;;;;;;7.88;3.08;;;20.80;99.20;;;21.44;92.10;101143.75;5145624;28;20058;-58
2022/10/30 10:04:00;;;;;;;6.90;3.25;;;20.90;98.90;;;21.50;91.83;101155.22;5145784;28;20054;-57
2022/10/30 10:06:57;;;;;;;10.13;3.13;;;20.90;98.80;;;21.63;91.36;101148.06;5163439;28;20046;-57
2022/10/30 10:09:59;;;;;;;8.13;3.38;;;21.00;98.60;;;21.81;91.16;101149.75;5135238;28;20054;-59
2022/10/30 10:12:47;;;;;;;6.32;2.85;;;21.20;98.50;;;21.89;90.06;101132.00;5146740;28;20050;-58
2022/10/30 10:15:33;;;;;;;8.07;2.90;;;21.30;98.20;;;21.91;89.28;101144.41;5166745;28;20034;-57
2022/10/30 10:18:17;;;;;;;5.65;2.70;;;21.30;97.80;;;21.94;89.21;101147.00;5166932;28;20085;-57
2022/10/30 10:20:55;;;;;;;5.93;3.00;;;21.40;97.70;;;21.98;89.18;101150.53;5166365;28;20129;-57
2022/10/30 10:23:35;;;;;;;4.57;2.83;;;21.40;97.70;;;22.08;89.24;101146.03;5166531;28;20526;-56
2022/10/30 10:26:34;;;;;;;6.00;2.60;;;21.50;97.70;;;22.18;89.75;101159.28;5166530;28;20435;-56
2022/10/30 10:29:33;;;;;;;7.03;2.78;;;21.50;97.80;;;22.32;89.48;101158.31;5166458;28;20050;-57
2022/10/30 10:32:36;;;;;;;5.75;3.30;;;21.70;97.80;;;22.40;89.00;101146.72;5165997;28;20462;-56
2022/10/30 10:35:37;;;;;;;5.18;2.70;;;21.80;97.60;;;22.48;88.18;101150.19;5166439;28;20049;-56
2022/10/30 10:38:20;;;;;;;6.03;2.55;;;21.80;97.30;;;22.59;87.64;101152.75;5151941;28;20054;-56
2022/10/30 10:41:01;;;;;;;7.38;2.85;;;21.90;97.10;;;22.59;86.98;101144.78;5165968;28;20046;-56
2022/10/30 10:43:49;;;;;;;5.55;2.67;;;22.00;96.70;;;22.63;86.91;101143.00;5166229;28;20108;-56
2022/10/30 10:46:50;;;;;;;6.85;2.80;;;22.00;96.70;;;22.67;87.34;101136.72;5166071;28;20046;-56
2022/10/30 10:49:46;;;;;;;5.97;2.50;;;22.00;96.80;;;22.81;87.41;101147.22;5165892;28;20133;-57
2022/10/30 10:52:23;;;;;;;8.15;3.15;;;22.10;96.70;;;22.90;86.98;101145.41;5165833;28;20046;-56
2022/10/30 10:55:00;;;;;;;6.05;3.03;;;22.20;96.60;;;22.95;86.71;101143.59;5165941;28;20050;-55